createdAt,value
2018-03-28T00:00:38.426Z,6.70
2018-03-28T00:03:06.732Z,6.70
2018-03-28T00:05:34.985Z,6.70
2018-03-28T00:08:03.279Z,6.70
2018-03-28T00:10:31.539Z,6.80
2018-03-28T00:12:59.773Z,6.70
2018-03-28T00:15:28.050Z,6.70
2018-03-28T00:17:57.186Z,6.60
2018-03-28T00:20:25.470Z,6.60
2018-03-28T00:22:53.748Z,6.60
2018-03-28T00:25:22.012Z,6.50
2018-03-28T00:27:50.394Z,6.60
2018-03-28T00:30:18.659Z,6.50
2018-03-28T00:32:47.681Z,6.50
2018-03-28T00:35:15.922Z,6.50
2018-03-28T00:37:44.599Z,6.50
2018-03-28T00:40:13.608Z,6.40
2018-03-28T00:42:42.643Z,6.50
2018-03-28T00:45:13.918Z,6.50
2018-03-28T00:47:42.171Z,6.50
2018-03-28T00:50:10.431Z,6.60
2018-03-28T00:52:38.665Z,6.50
2018-03-28T00:55:06.912Z,6.50
2018-03-28T00:57:35.178Z,6.50
2018-03-28T01:00:03.442Z,6.50
2018-03-28T01:02:31.714Z,6.50
2018-03-28T01:04:59.986Z,6.40
2018-03-28T01:07:28.893Z,6.40
2018-03-28T01:09:57.198Z,6.40
2018-03-28T01:12:25.457Z,6.50
2018-03-28T01:14:54.669Z,6.60
2018-03-28T01:17:23.242Z,6.70
2018-03-28T01:19:52.285Z,6.60
2018-03-28T01:22:21.418Z,6.60
2018-03-28T01:24:49.674Z,6.60
2018-03-28T01:27:18.717Z,6.60
2018-03-28T01:29:46.978Z,6.60
2018-03-28T01:32:15.242Z,6.60
2018-03-28T01:34:43.491Z,6.60
2018-03-28T01:37:12.530Z,6.60
2018-03-28T01:39:40.770Z,6.60
2018-03-28T01:42:09.032Z,6.70
2018-03-28T01:44:37.317Z,6.60
2018-03-28T01:47:06.323Z,6.60
2018-03-28T01:49:34.596Z,6.60
2018-03-28T01:52:02.850Z,6.60
2018-03-28T01:54:31.854Z,6.70
2018-03-28T01:57:00.900Z,6.80
2018-03-28T01:59:29.137Z,6.70
2018-03-28T02:01:58.167Z,6.80
2018-03-28T02:04:26.601Z,6.80
2018-03-28T02:06:55.631Z,6.70
2018-03-28T02:09:24.739Z,6.70
2018-03-28T02:11:53.273Z,6.70
2018-03-28T02:14:21.655Z,6.70
2018-03-28T02:16:50.678Z,6.80
2018-03-28T02:19:18.942Z,6.80
2018-03-28T02:21:47.224Z,6.80
2018-03-28T02:24:16.209Z,6.90
2018-03-28T02:26:44.459Z,6.90
2018-03-28T02:29:12.862Z,6.90
2018-03-28T02:31:41.153Z,7.00
2018-03-28T02:34:09.405Z,7.00
2018-03-28T02:36:38.426Z,7.00
2018-03-28T02:39:07.945Z,6.90
2018-03-28T02:41:36.246Z,6.90
2018-03-28T02:44:05.293Z,7.00
2018-03-28T02:46:34.323Z,6.90
2018-03-28T02:49:02.577Z,6.90
2018-03-28T02:51:30.851Z,6.90
2018-03-28T02:53:59.870Z,6.90
2018-03-28T02:56:28.099Z,6.90
2018-03-28T02:58:56.348Z,6.90
2018-03-28T03:01:24.583Z,6.90
2018-03-28T03:03:52.955Z,6.90
2018-03-28T03:06:21.974Z,6.80
2018-03-28T03:08:50.261Z,6.80
2018-03-28T03:11:18.492Z,6.90
2018-03-28T03:13:47.509Z,7.00
2018-03-28T03:16:16.524Z,7.10
2018-03-28T03:18:44.764Z,7.10
2018-03-28T03:21:13.839Z,7.00
2018-03-28T03:23:42.103Z,7.00
2018-03-28T03:26:10.389Z,7.10
2018-03-28T03:28:39.464Z,7.10
2018-03-28T03:31:07.948Z,7.10
2018-03-28T03:33:36.197Z,7.00
2018-03-28T03:36:05.070Z,7.00
2018-03-28T03:38:33.302Z,7.00
2018-03-28T03:41:01.573Z,7.10
2018-03-28T03:43:29.863Z,7.20
2018-03-28T03:45:59.726Z,7.10
2018-03-28T03:48:27.969Z,7.10
2018-03-28T03:50:56.268Z,7.10
2018-03-28T03:53:25.294Z,7.10
2018-03-28T03:55:53.552Z,7.10
2018-03-28T03:58:22.243Z,7.20
2018-03-28T04:00:50.472Z,7.30
2018-03-28T04:03:18.880Z,7.30
2018-03-28T04:05:47.450Z,7.20
2018-03-28T04:08:15.716Z,7.20
2018-03-28T04:10:43.991Z,7.10
2018-03-28T04:13:12.228Z,7.00
2018-03-28T04:15:40.513Z,7.10
2018-03-28T04:18:08.765Z,7.10
2018-03-28T04:20:37.788Z,7.10
2018-03-28T04:23:06.059Z,7.00
2018-03-28T04:25:34.327Z,7.10
2018-03-28T04:28:02.603Z,7.20
2018-03-28T04:30:30.891Z,7.10
2018-03-28T04:32:59.141Z,7.00
2018-03-28T04:35:27.398Z,7.00
2018-03-28T04:37:56.401Z,7.10
2018-03-28T04:40:25.583Z,7.10
2018-03-28T04:42:53.843Z,7.00
2018-03-28T04:45:22.129Z,7.10
2018-03-28T04:47:50.375Z,7.10
2018-03-28T04:50:18.646Z,7.10
2018-03-28T04:52:46.892Z,7.10
2018-03-28T04:55:15.916Z,7.10
2018-03-28T04:57:44.922Z,7.10
2018-03-28T05:00:13.218Z,7.10
2018-03-28T05:02:41.489Z,7.20
2018-03-28T05:05:09.718Z,7.20
2018-03-28T05:07:37.993Z,7.30
2018-03-28T05:10:07.012Z,7.20
2018-03-28T05:12:35.242Z,7.20
2018-03-28T05:15:03.522Z,7.20
2018-03-28T05:17:31.787Z,7.20
2018-03-28T05:20:00.017Z,7.20
2018-03-28T05:22:28.298Z,7.40
2018-03-28T05:24:56.933Z,7.40
2018-03-28T05:27:25.148Z,7.40
2018-03-28T05:29:53.410Z,7.30
2018-03-28T05:32:22.431Z,7.30
2018-03-28T05:34:50.688Z,7.30
2018-03-28T05:37:20.346Z,7.40
2018-03-28T05:39:48.673Z,7.40
2018-03-28T05:42:17.742Z,7.40
2018-03-28T05:44:45.948Z,7.40
2018-03-28T05:47:15.015Z,7.30
2018-03-28T05:49:43.304Z,7.30
2018-03-28T05:52:11.497Z,7.30
2018-03-28T05:54:39.749Z,7.30
2018-03-28T05:57:08.006Z,7.40
2018-03-28T05:59:36.318Z,7.40
2018-03-28T06:02:04.531Z,7.40
2018-03-28T06:04:32.807Z,7.50
2018-03-28T06:07:01.966Z,7.40
2018-03-28T06:09:30.199Z,7.40
2018-03-28T06:11:59.376Z,7.50
2018-03-28T06:14:27.624Z,7.50
2018-03-28T06:16:56.002Z,7.50
2018-03-28T06:19:25.027Z,7.60
2018-03-28T06:21:53.330Z,7.60
2018-03-28T06:24:23.146Z,7.70
2018-03-28T06:26:52.246Z,7.70
2018-03-28T06:29:20.555Z,7.70
2018-03-28T06:31:48.763Z,7.80
2018-03-28T06:34:17.013Z,7.80
2018-03-28T06:36:46.030Z,7.90
2018-03-28T06:39:14.292Z,7.90
2018-03-28T06:41:43.312Z,8.00
2018-03-28T06:44:11.582Z,8.00
2018-03-28T06:46:39.821Z,8.10
2018-03-28T06:49:08.094Z,8.20
2018-03-28T06:51:36.321Z,8.20
2018-03-28T06:54:04.643Z,8.30
2018-03-28T06:56:32.917Z,8.30
2018-03-28T06:59:02.606Z,8.30
2018-03-28T07:01:30.886Z,8.20
2018-03-28T07:03:59.148Z,8.30
2018-03-28T07:06:27.393Z,8.30
2018-03-28T07:08:56.105Z,8.40
2018-03-28T07:11:24.345Z,8.40
2018-03-28T07:13:52.679Z,8.40
2018-03-28T07:16:20.943Z,8.30
2018-03-28T07:18:49.196Z,8.30
2018-03-28T07:21:18.216Z,8.50
2018-03-28T07:23:46.492Z,8.50
2018-03-28T07:26:14.754Z,8.50
2018-03-28T07:28:44.062Z,8.60
2018-03-28T07:31:12.335Z,8.60
2018-03-28T07:33:40.634Z,8.40
2018-03-28T07:36:08.886Z,8.40
2018-03-28T07:38:38.027Z,8.40
2018-03-28T07:41:07.188Z,8.40
2018-03-28T07:43:37.042Z,8.50
2018-03-28T07:46:05.941Z,8.50
2018-03-28T07:48:34.225Z,8.50
2018-03-28T07:51:02.484Z,8.40
2018-03-28T07:53:30.766Z,8.50
2018-03-28T07:55:59.041Z,8.50
2018-03-28T07:58:27.312Z,8.60
2018-03-28T08:00:55.546Z,8.70
2018-03-28T08:03:23.825Z,8.40
2018-03-28T08:05:52.400Z,8.50
2018-03-28T08:08:22.415Z,8.40
2018-03-28T08:10:52.308Z,8.50
2018-03-28T08:13:20.575Z,8.50
2018-03-28T08:15:48.850Z,8.60
2018-03-28T08:18:17.133Z,8.80
2018-03-28T08:20:46.162Z,8.90
2018-03-28T08:23:15.253Z,9.30
2018-03-28T08:25:43.524Z,9.30
2018-03-28T08:28:11.747Z,9.40
2018-03-28T08:30:40.045Z,9.50
2018-03-28T08:33:08.302Z,9.70
2018-03-28T08:35:36.561Z,9.90
2018-03-28T08:38:04.842Z,10.10
2018-03-28T08:40:33.111Z,10.20
2018-03-28T08:43:02.128Z,10.50
2018-03-28T08:45:30.379Z,10.50
2018-03-28T08:47:58.659Z,10.50
2018-03-28T08:50:27.700Z,10.90
2018-03-28T08:52:57.171Z,11.00
2018-03-28T08:55:25.465Z,10.90
2018-03-28T08:57:53.765Z,11.00
2018-03-28T09:00:22.068Z,11.00
2018-03-28T09:02:51.126Z,10.90
2018-03-28T09:05:19.383Z,10.50
2018-03-28T09:07:47.641Z,10.40
2018-03-28T09:10:16.673Z,10.10
2018-03-28T09:12:44.973Z,10.00
2018-03-28T09:15:13.836Z,10.10
2018-03-28T09:17:42.832Z,10.10
2018-03-28T09:20:11.072Z,10.40
2018-03-28T09:22:40.103Z,10.50
2018-03-28T09:25:08.388Z,10.50
2018-03-28T09:27:36.638Z,10.30
2018-03-28T09:30:05.660Z,10.00
2018-03-28T09:32:33.926Z,10.00
2018-03-28T09:35:02.223Z,10.10
2018-03-28T09:37:30.652Z,10.30
2018-03-28T09:39:58.934Z,10.20
2018-03-28T09:42:27.157Z,10.20
2018-03-28T09:44:55.468Z,10.30
2018-03-28T09:47:23.793Z,10.50
2018-03-28T09:49:52.060Z,10.60
2018-03-28T09:52:20.314Z,10.70
2018-03-28T09:54:49.343Z,10.70
2018-03-28T09:57:18.339Z,10.70
2018-03-28T09:59:47.389Z,10.70
2018-03-28T10:02:15.635Z,10.50
2018-03-28T10:04:49.750Z,10.60
2018-03-28T10:07:18.059Z,10.60
2018-03-28T10:09:46.361Z,10.60
2018-03-28T10:12:14.634Z,10.70
2018-03-28T10:14:43.736Z,10.90
2018-03-28T10:17:11.985Z,10.90
2018-03-28T10:19:40.244Z,10.80
2018-03-28T10:22:08.527Z,10.70
2018-03-28T10:24:36.847Z,10.80
2018-03-28T10:27:05.124Z,10.80
2018-03-28T10:29:34.134Z,10.70
2018-03-28T10:32:03.328Z,10.70
2018-03-28T10:34:32.659Z,10.50
2018-03-28T10:37:01.017Z,10.40
2018-03-28T10:39:29.346Z,10.50
2018-03-28T10:41:57.625Z,10.60
2018-03-28T10:44:26.725Z,10.60
2018-03-28T10:46:55.706Z,10.60
2018-03-28T10:49:24.005Z,10.60
2018-03-28T10:51:52.296Z,10.50
2018-03-28T10:54:21.326Z,10.10
2018-03-28T10:56:49.610Z,10.10
2018-03-28T10:59:17.878Z,9.80
2018-03-28T11:01:46.135Z,9.80
2018-03-28T11:04:14.463Z,9.70
2018-03-28T11:06:42.719Z,9.60
2018-03-28T11:09:10.979Z,9.60
2018-03-28T11:11:39.318Z,9.60
2018-03-28T11:14:07.596Z,9.50
2018-03-28T11:16:35.873Z,9.50
2018-03-28T11:19:04.950Z,9.30
2018-03-28T11:21:33.229Z,9.30
2018-03-28T11:24:01.533Z,9.40
2018-03-28T11:26:29.766Z,9.40
2018-03-28T11:28:58.055Z,9.40
2018-03-28T11:31:26.359Z,9.40
2018-03-28T11:33:54.666Z,9.40
2018-03-28T11:36:22.946Z,9.50
2018-03-28T11:38:51.955Z,9.70
2018-03-28T11:41:20.201Z,9.70
2018-03-28T11:43:49.234Z,9.80
2018-03-28T11:46:17.869Z,9.80
2018-03-28T11:48:46.093Z,9.90
2018-03-28T11:51:14.436Z,10.00
2018-03-28T11:53:42.741Z,9.90
2018-03-28T11:56:11.020Z,9.90
2018-03-28T11:58:39.298Z,9.90
2018-03-28T12:01:07.547Z,9.90
2018-03-28T12:03:36.597Z,10.00
2018-03-28T12:06:05.606Z,10.00
2018-03-28T12:08:34.776Z,10.00
2018-03-28T12:11:03.086Z,10.00
2018-03-28T12:13:31.362Z,10.10
2018-03-28T12:16:00.801Z,10.20
2018-03-28T12:18:29.144Z,10.30
2018-03-28T12:20:58.137Z,10.40
2018-03-28T12:23:27.256Z,10.30
2018-03-28T12:25:56.284Z,10.30
2018-03-28T12:28:27.606Z,10.30
2018-03-28T12:30:55.852Z,10.10
2018-03-28T12:33:24.124Z,10.20
2018-03-28T12:35:52.389Z,10.30
2018-03-28T12:38:20.658Z,10.30
2018-03-28T12:40:49.485Z,10.30
2018-03-28T12:43:17.736Z,10.50
2018-03-28T12:45:46.016Z,10.60
2018-03-28T12:48:15.772Z,10.80
2018-03-28T12:50:43.995Z,10.90
2018-03-28T12:53:12.291Z,11.10
2018-03-28T12:55:40.591Z,11.20
2018-03-28T12:58:09.406Z,11.30
2018-03-28T13:00:38.459Z,11.40
2018-03-28T13:03:06.740Z,11.40
2018-03-28T13:05:35.014Z,11.50
2018-03-28T13:08:03.349Z,11.60
2018-03-28T13:10:32.768Z,11.40
2018-03-28T13:13:01.042Z,11.40
2018-03-28T13:15:29.319Z,11.50
2018-03-28T13:17:57.600Z,11.60
2018-03-28T13:20:25.893Z,11.50
2018-03-28T13:22:54.172Z,11.50
2018-03-28T13:25:22.493Z,11.50
2018-03-28T13:27:51.544Z,11.20
2018-03-28T13:30:19.827Z,11.20
2018-03-28T13:32:48.131Z,11.20
2018-03-28T13:35:16.412Z,11.10
2018-03-28T13:37:44.687Z,10.90
2018-03-28T13:40:13.754Z,10.80
2018-03-28T13:42:42.035Z,10.80
2018-03-28T13:45:10.355Z,10.70
2018-03-28T13:47:39.471Z,10.40
2018-03-28T13:50:07.734Z,10.40
2018-03-28T13:52:36.815Z,10.40
2018-03-28T13:55:05.073Z,10.40
2018-03-28T13:57:33.375Z,10.40
2018-03-28T14:00:01.665Z,10.40
2018-03-28T14:02:31.051Z,10.40
2018-03-28T14:04:59.296Z,10.40
2018-03-28T14:07:27.570Z,10.30
2018-03-28T14:09:55.896Z,10.20
2018-03-28T14:12:24.170Z,10.20
2018-03-28T14:14:52.431Z,10.10
2018-03-28T14:17:21.490Z,10.10
2018-03-28T14:19:49.746Z,10.10
2018-03-28T14:22:18.058Z,10.00
2018-03-28T14:24:46.292Z,9.90
2018-03-28T14:27:15.296Z,9.70
2018-03-28T14:29:45.111Z,9.70
2018-03-28T14:32:13.764Z,9.50
2018-03-28T14:34:41.988Z,9.50
2018-03-28T14:37:10.294Z,9.40
2018-03-28T14:39:38.942Z,9.30
2018-03-28T14:42:07.952Z,9.10
2018-03-28T14:44:36.253Z,9.10
2018-03-28T14:47:05.403Z,9.10
2018-03-28T14:49:34.412Z,9.00
2018-03-28T14:52:02.731Z,9.00
2018-03-28T14:54:30.984Z,9.00
2018-03-28T14:57:00.130Z,9.10
2018-03-28T14:59:28.444Z,9.10
2018-03-28T15:01:59.057Z,9.00
2018-03-28T15:04:27.330Z,9.00
2018-03-28T15:06:55.676Z,9.00
2018-03-28T15:09:23.959Z,9.00
2018-03-28T15:11:52.229Z,8.90
2018-03-28T15:14:20.727Z,8.80
2018-03-28T15:16:48.957Z,8.70
2018-03-28T15:19:17.410Z,8.60
2018-03-28T15:21:46.472Z,8.30
2018-03-28T15:24:14.871Z,8.30
2018-03-28T15:26:43.122Z,8.20
2018-03-28T15:29:11.387Z,8.20
2018-03-28T15:31:39.646Z,8.20
2018-03-28T15:36:38.315Z,8.10
2018-03-28T15:39:06.580Z,8.10
2018-03-28T15:41:36.212Z,8.00
2018-03-28T15:44:04.485Z,8.00
2018-03-28T15:46:33.544Z,8.10
2018-03-28T15:49:01.837Z,8.10
2018-03-28T15:51:31.022Z,8.10
2018-03-28T15:53:59.294Z,8.00
2018-03-28T15:56:27.619Z,8.00
2018-03-28T15:58:56.700Z,7.90
2018-03-28T16:01:25.682Z,7.90
2018-03-28T16:03:53.946Z,7.90
2018-03-28T16:06:22.289Z,7.90
2018-03-28T16:08:50.574Z,8.00
2018-03-28T16:11:19.179Z,8.00
2018-03-28T16:13:47.411Z,8.00
2018-03-28T16:16:16.490Z,8.00
2018-03-28T16:18:44.772Z,8.00
2018-03-28T16:21:13.814Z,8.00
2018-03-28T16:23:42.115Z,8.00
2018-03-28T16:26:10.379Z,8.00
2018-03-28T16:28:38.661Z,8.00
2018-03-28T16:31:06.925Z,8.00
2018-03-28T16:33:35.291Z,8.00
2018-03-28T16:36:04.640Z,8.00
2018-03-28T16:38:32.919Z,8.00
2018-03-28T16:41:02.015Z,8.00
2018-03-28T16:43:30.264Z,8.00
2018-03-28T16:45:58.628Z,8.00
2018-03-28T16:48:26.930Z,7.90
2018-03-28T16:50:55.237Z,7.90
2018-03-28T16:53:23.495Z,7.90
2018-03-28T16:55:51.751Z,7.90
2018-03-28T16:58:20.030Z,8.00
2018-03-28T17:00:48.903Z,8.00
2018-03-28T17:03:18.000Z,7.90
2018-03-28T17:05:47.804Z,7.90
2018-03-28T17:08:16.113Z,7.90
2018-03-28T17:10:45.234Z,7.90
2018-03-28T17:13:14.260Z,7.90
2018-03-28T17:15:43.667Z,7.90
2018-03-28T17:18:12.695Z,7.90
2018-03-28T17:20:41.047Z,7.90
2018-03-28T17:23:09.311Z,8.00
2018-03-28T17:25:37.628Z,8.00
2018-03-28T17:28:05.884Z,8.00
2018-03-28T17:30:34.172Z,8.00
2018-03-28T17:33:02.422Z,8.00
2018-03-28T17:35:32.711Z,8.10
2018-03-28T17:38:00.961Z,8.10
2018-03-28T17:40:29.262Z,8.20
2018-03-28T17:42:57.576Z,8.20
2018-03-28T17:45:26.111Z,8.30
2018-03-28T17:47:54.397Z,8.30
2018-03-28T17:50:22.647Z,8.30
2018-03-28T17:52:50.965Z,8.30
2018-03-28T17:55:19.230Z,8.30
2018-03-28T17:57:47.498Z,8.30
2018-03-28T18:00:15.755Z,8.30
2018-03-28T18:02:44.033Z,8.40
2018-03-28T18:05:12.350Z,8.40
2018-03-28T18:07:40.640Z,8.40
2018-03-28T18:10:08.949Z,8.40
2018-03-28T18:12:37.313Z,8.40
2018-03-28T18:15:05.623Z,8.40
2018-03-28T18:17:34.645Z,8.40
2018-03-28T18:20:02.936Z,8.40
2018-03-28T18:22:31.291Z,8.50
2018-03-28T18:24:59.571Z,8.50
2018-03-28T18:27:27.973Z,8.50
2018-03-28T18:29:56.289Z,8.50
2018-03-28T18:32:25.350Z,8.60
2018-03-28T18:34:53.643Z,8.60
2018-03-28T18:37:22.511Z,8.60
2018-03-28T18:39:50.862Z,8.60
2018-03-28T18:42:19.184Z,8.60
2018-03-28T18:44:47.431Z,8.70
2018-03-28T18:47:15.712Z,8.70
2018-03-28T18:49:44.883Z,8.70
2018-03-28T18:52:13.186Z,8.70
2018-03-28T18:54:42.640Z,8.80
2018-03-28T18:57:12.298Z,8.80
2018-03-28T18:59:40.577Z,8.80
2018-03-28T19:02:08.871Z,8.80
2018-03-28T19:04:37.147Z,8.80
2018-03-28T19:07:05.446Z,8.80
2018-03-28T19:09:33.773Z,8.80
2018-03-28T19:12:02.903Z,8.80
2018-03-28T19:14:31.284Z,8.80
2018-03-28T19:16:59.576Z,8.80
2018-03-28T19:19:27.972Z,8.80
2018-03-28T19:21:57.038Z,8.90
2018-03-28T19:24:25.388Z,8.90
2018-03-28T19:26:53.812Z,8.90
2018-03-28T19:29:22.124Z,9.00
2018-03-28T19:31:50.422Z,9.10
2018-03-28T19:34:18.839Z,9.10
2018-03-28T19:36:48.110Z,9.10
2018-03-28T19:39:16.601Z,9.20
2018-03-28T19:41:44.956Z,9.10
2018-03-28T19:44:13.230Z,9.00
2018-03-28T19:46:41.559Z,8.50
2018-03-28T19:49:09.796Z,8.40
2018-03-28T19:51:38.084Z,8.30
2018-03-28T19:54:06.392Z,8.20
2018-03-28T19:56:34.803Z,8.00
2018-03-28T19:59:03.114Z,8.00
2018-03-28T20:01:31.424Z,8.00
2018-03-28T20:03:59.751Z,8.10
2018-03-28T20:06:28.047Z,8.10
2018-03-28T20:08:56.356Z,8.00
2018-03-28T20:11:24.922Z,8.00
2018-03-28T20:13:53.437Z,7.80
2018-03-28T20:16:22.539Z,7.40
2018-03-28T20:18:50.964Z,7.40
2018-03-28T20:21:20.187Z,7.10
2018-03-28T20:23:48.465Z,7.00
2018-03-28T20:26:16.767Z,6.90
2018-03-28T20:28:45.110Z,6.90
2018-03-28T20:31:13.434Z,6.60
2018-03-28T20:33:42.876Z,6.50
2018-03-28T20:36:11.945Z,6.40
2018-03-28T20:38:40.233Z,6.40
2018-03-28T20:41:08.504Z,6.40
2018-03-28T20:43:37.608Z,6.20
2018-03-28T20:46:06.658Z,6.20
2018-03-28T20:48:34.916Z,6.20
2018-03-28T20:51:03.208Z,6.20
2018-03-28T20:53:31.833Z,6.10
2018-03-28T20:56:00.642Z,6.00
2018-03-28T20:58:28.984Z,6.00
2018-03-28T21:00:57.282Z,5.90
2018-03-28T21:03:25.548Z,5.90
2018-03-28T21:05:54.876Z,5.70
2018-03-28T21:08:23.890Z,5.60
2018-03-28T21:10:52.755Z,5.60
2018-03-28T21:13:21.015Z,5.60
2018-03-28T21:15:49.313Z,5.50
2018-03-28T21:18:18.628Z,5.60
2018-03-28T21:20:47.665Z,5.50
2018-03-28T21:23:16.823Z,5.40
2018-03-28T21:25:45.855Z,5.50
2018-03-28T21:28:14.095Z,5.50
2018-03-28T21:30:42.403Z,5.50
2018-03-28T21:33:10.660Z,5.40
2018-03-28T21:35:38.988Z,5.40
2018-03-28T21:38:07.218Z,5.40
2018-03-28T21:40:35.510Z,5.40
2018-03-28T21:43:04.541Z,5.40
2018-03-28T21:45:32.788Z,5.30
2018-03-28T21:48:01.063Z,5.30
2018-03-28T21:50:29.358Z,5.30
2018-03-28T21:52:58.427Z,5.30
2018-03-28T21:55:26.715Z,5.30
2018-03-28T21:57:54.980Z,5.30
2018-03-28T22:00:23.584Z,5.20
2018-03-28T22:02:52.363Z,5.10
2018-03-28T22:05:24.061Z,5.10
2018-03-28T22:07:54.522Z,5.00
2018-03-28T22:10:22.852Z,5.00
2018-03-28T22:12:52.076Z,4.80
2018-03-28T22:15:20.355Z,4.80
2018-03-28T22:17:48.670Z,4.70
2018-03-28T22:20:17.033Z,4.80
2018-03-28T22:22:46.199Z,4.90
2018-03-28T22:25:15.464Z,4.80
2018-03-28T22:27:43.759Z,4.90
2018-03-28T22:30:12.370Z,5.00
2018-03-28T22:32:40.666Z,4.80
2018-03-28T22:35:09.681Z,4.70
2018-03-28T22:37:37.963Z,4.70
2018-03-28T22:40:06.976Z,4.60
2018-03-28T22:42:35.259Z,4.60
2018-03-28T22:45:04.628Z,4.50
2018-03-28T22:47:32.876Z,4.50
2018-03-28T22:50:01.139Z,4.50
2018-03-28T22:52:29.402Z,4.50
2018-03-28T22:54:58.115Z,4.40
2018-03-28T22:57:26.354Z,4.30
2018-03-28T22:59:55.085Z,4.30
2018-03-28T23:02:23.347Z,4.40
2018-03-28T23:04:51.626Z,4.30
2018-03-28T23:07:20.968Z,4.20
2018-03-28T23:09:49.230Z,4.20
2018-03-28T23:12:17.549Z,4.10
2018-03-28T23:14:45.787Z,4.10
2018-03-28T23:17:15.563Z,3.90
2018-03-28T23:19:44.631Z,3.90
2018-03-28T23:22:24.782Z,3.90
2018-03-28T23:24:53.100Z,4.00
2018-03-28T23:27:21.375Z,3.90
2018-03-28T23:29:49.737Z,4.00
2018-03-28T23:32:18.039Z,4.10
2018-03-28T23:34:46.324Z,4.00
2018-03-28T23:37:14.604Z,3.90
2018-03-28T23:39:42.884Z,3.90
2018-03-28T23:42:11.125Z,4.00
2018-03-28T23:44:39.395Z,3.90
2018-03-28T23:47:07.626Z,3.80
2018-03-28T23:49:36.700Z,3.70
2018-03-28T23:52:04.966Z,3.70
2018-03-28T23:54:33.223Z,3.60
2018-03-28T23:57:01.512Z,3.60
2018-03-28T23:59:29.774Z,3.50
